Time;durP1;ratioP1;P1;durP2;ratioP2;P2;SDS_P1;SDS_P2;PMS_P1;PMS_P2;Temp;Humidity;BMP_temperature;BMP_pressure;BME280_temperature;BME280_humidity;BME280_pressure;Samples;Min_cycle;Max_cycle;Signal;HPM_P1;HPM_P2
2021/08/08 00:01:55;;;;;;;4.40;2.67;;;;;;;17.07;91.29;99532.47;5041509;28;20037;-81
2021/08/08 00:04:22;;;;;;;3.15;2.00;;;;;;;17.09;91.40;99535.84;5046247;28;20133;-82
2021/08/08 00:06:49;;;;;;;4.63;2.63;;;;;;;17.07;91.69;99532.47;5049030;28;20080;-81
2021/08/08 00:09:16;;;;;;;4.63;2.58;;;;;;;17.10;91.57;99537.53;5035298;28;20445;-82
2021/08/08 00:11:45;;;;;;;3.67;2.20;;;;;;;17.13;91.21;99545.31;5034091;28;20564;-82
2021/08/08 00:14:12;;;;;;;3.70;2.28;;;;;;;17.12;91.45;99540.94;5044616;28;20080;-82
2021/08/08 00:16:38;;;;;;;8.73;2.58;;;;;;;17.10;91.41;99539.38;5049428;28;20057;-82
2021/08/08 00:19:05;;;;;;;3.42;1.90;;;;;;;17.10;91.17;99536.69;5058689;28;20096;-82
2021/08/08 00:21:32;;;;;;;4.28;2.35;;;;;;;17.12;91.30;99532.91;5054926;28;20041;-82
2021/08/08 00:23:58;;;;;;;4.03;2.33;;;;;;;17.14;91.82;99538.97;5054630;28;20037;-82
2021/08/08 00:26:26;;;;;;;3.08;1.95;;;;;;;17.14;90.92;99541.66;5053628;28;20041;-82
2021/08/08 00:28:52;;;;;;;3.80;2.30;;;;;;;17.10;91.24;99537.53;5054633;28;20041;-82
2021/08/08 00:31:24;;;;;;;5.05;1.92;;;;;;;17.10;91.17;99548.25;5057499;28;20052;-82
2021/08/08 00:33:51;;;;;;;2.33;1.90;;;;;;;17.09;90.99;99548.38;5051183;28;20060;-82
2021/08/08 00:36:19;;;;;;;2.88;2.25;;;;;;;17.05;90.75;99549.63;5054047;28;20057;-82
2021/08/08 00:38:46;;;;;;;3.17;2.53;;;;;;;17.02;91.10;99561.44;5034369;28;20479;-82
2021/08/08 00:41:14;;;;;;;2.25;2.05;;;;;;;17.00;91.17;99552.69;5034657;28;20409;-82
2021/08/08 00:43:41;;;;;;;3.38;2.00;;;;;;;16.99;90.69;99561.72;5032749;28;20117;-82
2021/08/08 00:46:10;;;;;;;3.38;2.08;;;;;;;16.96;90.92;99555.78;5031867;28;20045;-82
2021/08/08 00:48:37;;;;;;;4.75;1.73;;;;;;;16.91;90.94;99558.84;5032878;28;20397;-82
2021/08/08 00:51:05;;;;;;;2.25;1.60;;;;;;;16.87;91.00;99552.06;5032983;28;20053;-82
2021/08/08 00:53:31;;;;;;;2.42;1.77;;;;;;;16.82;90.85;99555.16;5034917;28;20049;-82
2021/08/08 00:55:58;;;;;;;1.90;1.70;;;;;;;16.80;90.94;99566.94;5031699;28;20120;-82
2021/08/08 00:58:26;;;;;;;2.65;1.63;;;;;;;16.75;91.09;99563.81;5035574;28;20054;-82
2021/08/08 01:00:58;;;;;;;3.85;1.63;;;;;;;16.72;90.72;99562.25;5034906;28;20073;-82
2021/08/08 01:03:26;;;;;;;5.38;1.67;;;;;;;16.69;90.52;99562.50;5036917;28;20056;-82
2021/08/08 01:06:05;;;;;;;6.03;1.80;;;;;;;16.68;90.20;99571.53;5037686;28;20055;-82
2021/08/08 01:08:33;;;;;;;2.80;1.65;;;;;;;16.68;89.70;99568.00;5037074;28;20048;-82
2021/08/08 01:11:01;;;;;;;3.35;1.55;;;;;;;16.65;89.79;99578.94;5037554;28;20041;-82
2021/08/08 01:13:31;;;;;;;2.60;1.55;;;;;;;16.63;89.83;99578.22;5026752;28;20059;-82
2021/08/08 01:15:58;;;;;;;2.63;1.20;;;;;;;16.61;89.31;99577.47;5031198;28;20057;-82
2021/08/08 01:18:25;;;;;;;2.40;1.58;;;;;;;16.62;89.27;99580.03;5038820;28;20525;-82
2021/08/08 01:20:52;;;;;;;2.60;1.50;;;;;;;16.67;88.51;99585.03;5036571;28;20047;-82
2021/08/08 01:23:22;;;;;;;1.65;1.02;;;;;;;16.68;88.27;99581.38;5043136;28;20045;-82
2021/08/08 01:25:49;;;;;;;1.80;1.17;;;;;;;16.71;87.85;99587.28;5041736;28;20025;-82
2021/08/08 01:28:17;;;;;;;3.22;1.23;;;;;;;16.72;87.54;99593.47;5053031;28;20533;-81
2021/08/08 01:30:44;;;;;;;3.90;1.58;;;;;;;16.65;87.32;99579.81;5056433;28;20047;-81
2021/08/08 01:33:11;;;;;;;1.90;1.17;;;;;;;16.66;86.94;99591.34;5039268;28;20040;-82
2021/08/08 01:35:37;;;;;;;2.83;1.58;;;;;;;16.58;86.94;99591.09;5055295;28;20089;-82
2021/08/08 01:38:07;;;;;;;2.33;1.23;;;;;;;16.56;87.38;99596.56;5050528;28;20045;-82
2021/08/08 01:41:02;;;;;;;4.53;1.55;;;;;;;16.47;87.25;99597.34;5062182;28;20029;-81
2021/08/08 01:43:30;;;;;;;3.53;1.40;;;;;;;16.47;87.50;99600.88;5053979;28;20072;-82
2021/08/08 01:46:04;;;;;;;1.70;1.27;;;;;;;16.44;87.69;99605.63;5049053;28;20053;-82
2021/08/08 01:48:34;;;;;;;3.15;1.23;;;;;;;16.39;87.49;99610.50;5038033;28;20445;-82
2021/08/08 01:51:01;;;;;;;3.37;1.60;;;;;;;16.37;87.58;99615.16;5037050;28;20067;-82
2021/08/08 01:53:30;;;;;;;4.20;1.23;;;;;;;16.34;87.78;99610.03;5048791;28;20389;-82
2021/08/08 01:55:57;;;;;;;2.17;1.42;;;;;;;16.32;87.86;99612.00;5050865;28;20064;-81
2021/08/08 01:58:27;;;;;;;1.98;1.40;;;;;;;16.32;87.83;99618.19;5050404;28;20041;-82
2021/08/08 02:00:55;;;;;;;2.03;1.00;;;;;;;16.27;87.56;99614.19;5047826;28;20052;-82
2021/08/08 02:03:32;;;;;;;2.08;1.13;;;;;;;16.28;87.78;99624.75;5047691;28;20058;-83
2021/08/08 02:06:00;;;;;;;2.25;1.30;;;;;;;16.29;87.78;99629.13;5032943;28;20056;-82
2021/08/08 02:08:27;;;;;;;2.50;1.23;;;;;;;16.30;87.09;99630.81;5045173;28;20056;-82
2021/08/08 02:10:53;;;;;;;2.97;1.55;;;;;;;16.30;86.86;99633.50;5050854;28;20493;-82
2021/08/08 02:13:24;;;;;;;4.05;1.40;;;;;;;16.27;86.95;99625.72;5041814;28;20108;-82
2021/08/08 02:15:51;;;;;;;4.32;1.70;;;;;;;16.28;87.01;99634.59;5047150;28;20048;-82
2021/08/08 02:18:18;;;;;;;3.33;1.55;;;;;;;16.26;86.99;99631.19;5039950;28;20045;-82
2021/08/08 02:20:45;;;;;;;1.60;1.30;;;;;;;16.25;87.04;99633.00;5044834;28;20072;-82
2021/08/08 02:23:14;;;;;;;3.83;1.70;;;;;;;16.23;86.59;99634.97;5042072;28;20110;-82
2021/08/08 02:25:42;;;;;;;4.10;1.73;;;;;;;16.20;86.60;99631.72;5047093;28;20046;-82
2021/08/08 02:28:09;;;;;;;2.10;1.48;;;;;;;16.20;86.88;99643.25;5049095;28;20053;-82
2021/08/08 02:30:36;;;;;;;3.03;1.52;;;;;;;16.19;86.95;99638.03;5048416;28;20072;-82
2021/08/08 02:33:03;;;;;;;1.88;1.60;;;;;;;16.21;87.01;99644.94;5050590;28;20045;-82
2021/08/08 02:35:30;;;;;;;1.98;1.45;;;;;;;16.23;86.54;99647.47;5054627;28;20052;-82
2021/08/08 02:37:56;;;;;;;6.10;1.73;;;;;;;16.24;86.78;99660.69;5048017;28;20061;-82
2021/08/08 02:40:23;;;;;;;2.95;1.90;;;;;;;16.23;86.71;99652.81;5051138;28;20052;-82
2021/08/08 02:42:49;;;;;;;3.20;1.88;;;;;;;16.24;86.54;99660.69;5043097;28;20029;-82
2021/08/08 02:45:17;;;;;;;2.42;1.52;;;;;;;16.25;86.23;99659.72;5045170;28;20115;-82
2021/08/08 02:47:44;;;;;;;2.25;1.83;;;;;;;16.21;86.48;99663.66;5049256;28;20136;-82
2021/08/08 02:50:12;;;;;;;5.03;1.80;;;;;;;16.21;86.35;99668.13;5049035;28;20119;-82
2021/08/08 02:52:41;;;;;;;4.53;1.90;;;;;;;16.19;86.67;99673.59;5042053;28;20080;-83
2021/08/08 02:55:10;;;;;;;4.18;1.83;;;;;;;16.17;86.47;99678.22;5043239;28;20069;-82
2021/08/08 02:57:37;;;;;;;2.15;1.60;;;;;;;16.14;86.72;99671.31;5041177;28;20044;-82
2021/08/08 03:00:04;;;;;;;2.03;1.83;;;;;;;16.16;86.63;99684.53;5049449;28;20056;-82
2021/08/08 03:02:31;;;;;;;3.70;1.80;;;;;;;16.16;86.43;99683.69;5048618;28;20140;-82
2021/08/08 03:04:58;;;;;;;3.92;1.90;;;;;;;16.17;86.57;99691.56;5055624;28;20052;-82
2021/08/08 03:07:25;;;;;;;3.22;2.15;;;;;;;16.20;86.51;99693.16;5040879;28;20432;-82
2021/08/08 03:09:52;;;;;;;5.25;2.00;;;;;;;16.17;86.46;99686.22;5043229;28;20083;-82
2021/08/08 03:12:21;;;;;;;3.17;2.20;;;;;;;16.21;86.40;99692.19;5047175;28;20052;-82
2021/08/08 03:14:47;;;;;;;4.53;2.15;;;;;;;16.23;86.00;99696.41;5048225;28;20113;-82
2021/08/08 03:17:14;;;;;;;3.03;1.92;;;;;;;16.23;86.25;99696.41;5037053;28;20053;-82
2021/08/08 03:19:41;;;;;;;3.63;1.73;;;;;;;16.24;86.21;99700.78;5044022;28;20054;-82
2021/08/08 03:22:08;;;;;;;3.05;2.40;;;;;;;16.28;85.93;99712.91;5047252;28;20045;-82
2021/08/08 03:24:35;;;;;;;4.63;2.10;;;;;;;16.35;85.49;99713.28;5044980;28;20045;-82
2021/08/08 03:27:02;;;;;;;2.70;1.88;;;;;;;16.36;85.28;99717.66;5040095;28;20049;-82
2021/08/08 03:29:28;;;;;;;5.45;1.90;;;;;;;16.41;85.19;99723.44;5043229;28;20496;-82
2021/08/08 03:31:55;;;;;;;3.03;1.55;;;;;;;16.41;84.85;99723.44;5037067;28;20067;-82
2021/08/08 03:34:22;;;;;;;3.20;1.85;;;;;;;16.39;84.74;99718.22;5043087;28;20114;-82
2021/08/08 03:36:48;;;;;;;3.25;1.95;;;;;;;16.43;84.78;99729.53;5042004;28;20485;-82
2021/08/08 03:39:16;;;;;;;4.43;1.85;;;;;;;16.42;84.66;99736.69;5037174;28;20042;-82
2021/08/08 03:41:43;;;;;;;2.97;1.80;;;;;;;16.42;84.84;99735.84;5037978;28;20029;-82
2021/08/08 03:44:10;;;;;;;2.38;1.95;;;;;;;16.43;84.59;99738.38;5052699;28;20110;-82
2021/08/08 03:46:36;;;;;;;3.63;2.13;;;;;;;16.43;84.41;99738.38;5050546;28;20041;-82
2021/08/08 03:49:03;;;;;;;5.90;1.80;;;;;;;16.43;84.51;99738.38;5050345;28;20050;-82
2021/08/08 03:51:29;;;;;;;3.88;1.90;;;;;;;16.49;84.28;99751.25;5046260;28;20117;-82
2021/08/08 03:53:56;;;;;;;2.10;1.90;;;;;;;16.49;84.26;99743.25;5049648;28;20053;-82
2021/08/08 03:56:24;;;;;;;2.22;1.77;;;;;;;16.51;84.03;99759.16;5042067;28;20056;-82
2021/08/08 03:58:51;;;;;;;4.10;1.60;;;;;;;16.48;83.95;99757.56;5039019;28;20050;-82
2021/08/08 04:01:18;;;;;;;2.72;1.60;;;;;;;16.47;84.16;99755.88;5033415;28;20049;-82
2021/08/08 04:03:46;;;;;;;2.42;1.65;;;;;;;16.42;83.89;99754.53;5036831;28;20048;-82
2021/08/08 04:06:13;;;;;;;3.55;1.55;;;;;;;16.39;84.57;99754.78;5032109;28;20052;-82
2021/08/08 04:08:39;;;;;;;4.03;1.65;;;;;;;16.33;84.89;99772.19;5035023;28;20041;-82
2021/08/08 04:11:13;;;;;;;5.40;1.90;;;;;;;16.28;84.95;99757.47;5024732;28;20058;-82
2021/08/08 04:13:41;;;;;;;4.18;1.50;;;;;;;16.28;85.17;99762.81;5032741;28;20416;-82
2021/08/08 04:16:07;;;;;;;2.13;1.50;;;;;;;16.30;85.23;99759.06;5032586;28;20109;-82
2021/08/08 04:18:34;;;;;;;2.83;1.60;;;;;;;16.34;84.99;99757.84;5028069;28;20140;-82
2021/08/08 04:21:01;;;;;;;2.55;1.50;;;;;;;16.37;85.01;99764.78;5027868;28;20045;-82
2021/08/08 04:23:28;;;;;;;4.50;1.45;;;;;;;16.39;84.66;99758.31;5050041;28;20092;-82
2021/08/08 04:25:55;;;;;;;4.40;1.50;;;;;;;16.42;84.54;99768.75;5051604;28;20037;-82
2021/08/08 04:28:21;;;;;;;3.05;1.20;;;;;;;16.44;84.83;99760.63;5052682;28;20033;-82
2021/08/08 04:30:48;;;;;;;2.33;1.40;;;;;;;16.43;84.50;99762.44;5060721;28;20102;-82
2021/08/08 04:33:14;;;;;;;2.70;1.35;;;;;;;16.43;84.44;99761.59;5068045;28;20036;-82
2021/08/08 04:35:41;;;;;;;2.35;1.23;;;;;;;16.43;84.35;99765.09;5054701;28;20087;-82
2021/08/08 04:38:08;;;;;;;3.88;1.55;;;;;;;16.47;84.17;99776.41;5046155;28;20049;-82
2021/08/08 04:40:34;;;;;;;2.35;1.20;;;;;;;16.47;83.86;99771.91;5034637;28;20053;-82
2021/08/08 04:43:04;;;;;;;1.98;1.23;;;;;;;16.45;84.28;99765.84;5035994;28;20121;-82
2021/08/08 04:45:31;;;;;;;2.97;1.38;;;;;;;16.42;84.04;99781.25;5025242;28;20053;-82
2021/08/08 04:47:58;;;;;;;4.53;1.35;;;;;;;16.34;84.23;99776.56;5025123;28;20050;-82
2021/08/08 04:50:25;;;;;;;3.03;1.27;;;;;;;16.31;84.49;99776.78;5031827;28;20479;-82
2021/08/08 04:52:53;;;;;;;4.22;1.60;;;;;;;16.30;84.38;99792.94;5031206;28;20049;-82
2021/08/08 04:55:19;;;;;;;2.72;1.20;;;;;;;16.33;84.26;99798.06;5031087;28;20059;-82
2021/08/08 04:57:46;;;;;;;1.85;1.10;;;;;;;16.36;84.52;99800.47;5034295;28;20052;-82
2021/08/08 05:00:14;;;;;;;1.50;1.30;;;;;;;16.36;84.67;99801.34;5026381;28;20119;-82
2021/08/08 05:02:48;;;;;;;3.30;1.45;;;;;;;16.29;84.31;99805.44;5027657;28;20160;-82
2021/08/08 05:05:16;;;;;;;4.30;1.50;;;;;;;16.21;85.09;99810.56;5026935;28;20134;-82
2021/08/08 05:07:46;;;;;;;2.70;1.02;;;;;;;16.15;85.76;99805.72;5031489;28;20041;-82
2021/08/08 05:10:16;;;;;;;3.78;1.30;;;;;;;16.12;85.59;99806.78;5036668;28;20049;-82
2021/08/08 05:12:43;;;;;;;3.13;1.50;;;;;;;16.11;85.66;99807.75;5032011;28;20049;-82
2021/08/08 05:15:10;;;;;;;2.72;1.38;;;;;;;16.03;86.10;99796.84;5036002;28;20063;-82
2021/08/08 05:17:37;;;;;;;3.72;1.40;;;;;;;16.08;85.95;99805.31;5038053;28;20109;-82
2021/08/08 05:20:05;;;;;;;2.90;1.75;;;;;;;16.08;85.88;99809.81;5046613;28;20116;-82
2021/08/08 05:22:32;;;;;;;3.83;1.50;;;;;;;16.10;85.92;99802.53;5054510;28;20046;-82
2021/08/08 05:24:59;;;;;;;3.53;1.25;;;;;;;16.13;85.86;99805.81;5038999;28;20056;-82
2021/08/08 05:27:26;;;;;;;5.07;1.55;;;;;;;16.12;85.76;99804.13;5041634;28;20053;-83
2021/08/08 05:29:56;;;;;;;2.17;1.45;;;;;;;16.17;85.27;99809.09;5039623;28;20053;-82
2021/08/08 05:32:23;;;;;;;1.63;1.38;;;;;;;16.17;85.17;99810.94;5043357;28;20041;-82
2021/08/08 05:34:50;;;;;;;2.25;1.48;;;;;;;16.18;85.20;99816.16;5045383;28;20074;-82
2021/08/08 05:37:19;;;;;;;4.25;1.23;;;;;;;16.18;85.02;99815.31;5047571;28;20619;-82
2021/08/08 05:39:46;;;;;;;4.53;1.40;;;;;;;16.19;85.27;99817.84;5045638;28;20045;-82
2021/08/08 05:42:13;;;;;;;2.72;1.20;;;;;;;16.21;84.95;99831.94;5038751;28;20105;-82
2021/08/08 05:44:39;;;;;;;2.38;1.30;;;;;;;16.27;84.72;99836.78;5040627;28;20084;-82
2021/08/08 05:47:06;;;;;;;4.68;1.60;;;;;;;16.27;84.72;99834.13;5048833;28;20085;-82
2021/08/08 05:49:34;;;;;;;3.63;1.48;;;;;;;16.33;84.57;99841.66;5043525;28;20045;-82
2021/08/08 05:52:02;;;;;;;3.88;1.50;;;;;;;16.39;83.87;99840.28;5037181;28;20112;-82
2021/08/08 05:54:29;;;;;;;4.53;1.60;;;;;;;16.51;83.62;99849.19;5033153;28;20420;-82
2021/08/08 05:56:56;;;;;;;2.42;1.70;;;;;;;16.70;82.50;99839.56;5036441;28;20057;-82
2021/08/08 05:59:23;;;;;;;3.80;1.45;;;;;;;16.81;81.41;99842.22;5035425;28;20045;-82
2021/08/08 06:01:49;;;;;;;2.78;1.52;;;;;;;16.90;80.61;99847.78;5023805;28;20048;-81
2021/08/08 06:04:16;;;;;;;3.03;1.30;;;;;;;16.87;80.07;99834.66;5040536;28;20485;-82
2021/08/08 06:06:43;;;;;;;1.90;1.27;;;;;;;16.93;80.20;99848.41;5031730;28;20045;-82
2021/08/08 06:09:10;;;;;;;3.10;1.20;;;;;;;16.88;80.00;99841.72;5027327;28;20046;-81
2021/08/08 06:11:37;;;;;;;4.40;1.80;;;;;;;16.92;80.13;99849.38;5035051;28;20042;-82
2021/08/08 06:14:05;;;;;;;3.35;1.40;;;;;;;16.96;80.01;99852.66;5034552;28;20045;-82
2021/08/08 06:16:32;;;;;;;2.92;1.35;;;;;;;17.07;79.67;99872.19;5033697;28;20052;-81
2021/08/08 06:19:00;;;;;;;4.15;1.40;;;;;;;17.12;78.77;99879.84;5037427;28;20113;-82
2021/08/08 06:21:26;;;;;;;2.50;1.52;;;;;;;17.22;78.35;99872.75;5032161;28;20081;-82
2021/08/08 06:23:54;;;;;;;5.78;1.42;;;;;;;17.38;77.70;99867.81;5036233;28;20055;-82
2021/08/08 06:26:20;;;;;;;5.30;1.77;;;;;;;17.71;76.52;99872.19;5039284;28;20072;-82
2021/08/08 06:28:47;;;;;;;4.88;1.63;;;;;;;18.06;74.47;99869.19;5038861;28;20037;-82
2021/08/08 06:31:15;;;;;;;3.05;1.60;;;;;;;18.21;73.70;99872.38;5041310;28;20044;-81
2021/08/08 06:33:42;;;;;;;3.10;1.90;;;;;;;18.54;72.36;99873.94;5038843;28;20084;-81
2021/08/08 06:36:08;;;;;;;2.95;1.50;;;;;;;18.91;69.57;99874.22;5032007;28;20065;-82
2021/08/08 06:38:38;;;;;;;3.92;1.63;;;;;;;19.16;69.66;99878.22;5032231;28;20103;-81
2021/08/08 06:41:09;;;;;;;4.00;1.98;;;;;;;19.52;66.87;99879.38;5040981;28;20132;-82
2021/08/08 06:43:36;;;;;;;5.80;1.65;;;;;;;19.80;65.92;99881.25;5043426;28;20897;-82
2021/08/08 06:46:03;;;;;;;4.93;1.77;;;;;;;19.93;64.84;99884.47;5029275;28;20140;-82
2021/08/08 06:48:34;;;;;;;2.95;1.60;;;;;;;19.88;65.19;99899.31;5034222;28;20068;-82
2021/08/08 06:51:05;;;;;;;3.25;1.95;;;;;;;20.07;64.98;99893.06;5030681;28;20045;-82
2021/08/08 06:53:32;;;;;;;3.00;1.60;;;;;;;20.01;63.37;99904.38;5033929;28;20623;-82
2021/08/08 06:55:59;;;;;;;3.35;1.88;;;;;;;20.14;63.94;99910.31;5041512;28;20049;-82
2021/08/08 06:58:26;;;;;;;6.25;1.90;;;;;;;20.26;63.02;99911.84;5038856;28;20072;-82
2021/08/08 07:00:53;;;;;;;2.75;1.65;;;;;;;20.35;62.80;99918.19;5044336;28;20065;-82
2021/08/08 07:03:20;;;;;;;6.82;1.80;;;;;;;20.46;61.72;99915.38;5040699;28;20053;-81
2021/08/08 07:05:47;;;;;;;4.45;2.15;;;;;;;20.49;61.67;99913.19;5050421;28;20033;-83
2021/08/08 07:08:13;;;;;;;3.63;1.83;;;;;;;20.71;61.10;99924.59;5043228;28;20069;-82
2021/08/08 07:10:41;;;;;;;5.60;1.80;;;;;;;20.80;60.87;99916.47;5041671;28;20523;-83
2021/08/08 07:13:08;;;;;;;4.93;1.60;;;;;;;20.93;61.12;99919.69;5030069;28;20121;-83
2021/08/08 07:15:35;;;;;;;8.18;1.83;;;;;;;20.90;60.55;99924.53;5031186;28;20046;-82
2021/08/08 07:18:01;;;;;;;3.95;1.83;;;;;;;20.92;59.46;99917.16;5044387;28;20059;-90
2021/08/08 07:20:51;;;;;;;6.30;1.90;;;;;;;20.96;60.00;99921.22;5035524;28;20052;-84
2021/08/08 07:23:18;;;;;;;3.75;1.63;;;;;;;20.92;60.15;99927.91;5041313;28;20378;-84
2021/08/08 07:25:45;;;;;;;7.03;2.20;;;;;;;20.94;59.47;99934.81;5047008;28;20104;-84
2021/08/08 07:28:12;;;;;;;3.72;1.77;;;;;;;20.80;58.04;99950.59;5039666;28;20109;-83
2021/08/08 07:30:43;;;;;;;4.18;1.80;;;;;;;20.47;57.65;99939.41;5042070;28;20105;-84
2021/08/08 07:33:10;;;;;;;4.75;2.00;;;;;;;20.22;58.03;99948.06;5047982;28;20038;-84
2021/08/08 07:35:39;;;;;;;3.90;1.90;;;;;;;20.05;58.87;99935.38;5037747;28;20765;-83
2021/08/08 07:38:08;;;;;;;10.60;2.10;;;;;;;20.10;58.98;99942.00;5029099;28;20135;-82
2021/08/08 07:40:35;;;;;;;4.30;2.30;;;;;;;20.25;59.79;99943.25;5031653;28;20152;-83
2021/08/08 07:43:03;;;;;;;4.22;1.70;;;;;;;20.45;58.63;99945.94;5031878;28;20058;-84
2021/08/08 07:45:30;;;;;;;5.03;1.80;;;;;;;20.62;56.43;99956.75;5036759;28;20053;-83
2021/08/08 07:47:56;;;;;;;4.50;1.73;;;;;;;20.69;55.89;99950.81;5032008;28;20072;-83
2021/08/08 07:50:23;;;;;;;5.80;1.88;;;;;;;20.75;54.98;99959.16;5033360;28;20061;-83
2021/08/08 07:52:50;;;;;;;3.92;1.50;;;;;;;20.80;55.36;99959.53;5036189;28;20540;-83
2021/08/08 07:55:17;;;;;;;3.83;1.52;;;;;;;21.05;55.32;99949.09;5036680;28;20049;-83
2021/08/08 07:57:46;;;;;;;5.25;1.60;;;;;;;21.42;54.43;99957.09;5043252;28;20052;-83
2021/08/08 08:00:13;;;;;;;4.03;1.60;;;;;;;21.67;52.54;99957.22;5019066;28;20049;-83
2021/08/08 08:02:40;;;;;;;2.53;1.20;;;;;;;21.68;52.42;99956.22;5030899;28;20498;-83
2021/08/08 08:05:08;;;;;;;3.88;1.70;;;;;;;21.94;52.97;99969.75;5026493;28;20454;-83
2021/08/08 08:07:35;;;;;;;2.97;1.30;;;;;;;21.88;51.44;99970.38;5028725;28;20050;-83
2021/08/08 08:10:02;;;;;;;3.85;1.55;;;;;;;21.71;51.73;99973.94;5032057;28;20053;-82
2021/08/08 08:12:29;;;;;;;5.72;1.52;;;;;;;21.77;48.98;99978.69;5037246;28;20056;-82
2021/08/08 08:14:56;;;;;;;3.40;1.60;;;;;;;21.59;51.31;99964.38;5032927;28;20049;-83
2021/08/08 08:17:23;;;;;;;5.43;1.33;;;;;;;21.67;50.89;99964.47;5041410;28;20467;-83
2021/08/08 08:19:49;;;;;;;3.00;1.40;;;;;;;21.48;51.74;99973.53;5039831;28;20485;-83
2021/08/08 08:22:16;;;;;;;4.00;1.45;;;;;;;21.39;50.36;99965.53;5038427;28;20060;-82
2021/08/08 08:24:44;;;;;;;4.78;1.70;;;;;;;21.30;51.46;99978.03;5037161;28;20038;-82
2021/08/08 08:27:13;;;;;;;3.17;1.30;;;;;;;21.29;52.05;99963.72;5037273;28;20055;-83
2021/08/08 08:29:40;;;;;;;4.18;1.30;;;;;;;21.39;51.77;99966.38;5043562;28;20032;-82
2021/08/08 08:32:08;;;;;;;3.22;1.30;;;;;;;21.42;50.86;99976.81;5054858;28;20101;-83
2021/08/08 08:34:36;;;;;;;3.85;1.30;;;;;;;21.21;51.48;99976.25;5041257;28;20053;-83
2021/08/08 08:37:03;;;;;;;4.80;1.58;;;;;;;21.12;50.91;99977.94;5039315;28;20052;-82
2021/08/08 08:39:30;;;;;;;3.63;1.42;;;;;;;21.29;51.90;99987.94;5036577;28;20049;-83
2021/08/08 08:42:01;;;;;;;5.22;1.60;;;;;;;21.50;49.37;99986.84;5042491;28;20128;-83
2021/08/08 08:44:29;;;;;;;4.13;1.30;;;;;;;21.69;48.73;99998.34;5036635;28;20049;-83
2021/08/08 08:46:58;;;;;;;4.55;1.40;;;;;;;21.70;47.77;99999.19;5035260;28;20053;-81
2021/08/08 08:49:27;;;;;;;5.88;1.55;;;;;;;21.57;48.00;99999.53;5046335;28;20065;-82
2021/08/08 08:52:01;;;;;;;4.57;1.60;;;;;;;21.31;48.99;99999.44;5045163;28;20109;-83
2021/08/08 08:54:31;;;;;;;5.25;1.23;;;;;;;21.19;48.88;100008.72;5036966;28;20049;-83
2021/08/08 08:56:59;;;;;;;;;;;;;;;21.24;49.74;100009.13;5047206;28;20061;-82
2021/08/08 08:59:27;;;;;;;4.63;1.42;;;;;;;21.37;48.58;100016.00;5045633;28;19928;-83
2021/08/08 09:01:54;;;;;;;5.80;3.72;;;;;;;21.52;47.99;99998.31;5046726;28;20136;-83
2021/08/08 09:04:21;;;;;;;7.63;4.70;;;;;;;21.55;47.96;100004.25;5043214;28;20054;-83
2021/08/08 09:06:47;;;;;;;5.22;2.00;;;;;;;21.37;48.07;100016.00;5039205;28;20045;-83
2021/08/08 09:09:15;;;;;;;5.93;1.40;;;;;;;21.25;48.07;100004.59;5043516;28;20409;-83
2021/08/08 09:11:44;;;;;;;4.78;1.35;;;;;;;21.27;48.25;99998.03;5047190;28;20101;-83
2021/08/08 09:14:12;;;;;;;6.13;1.60;;;;;;;21.29;48.18;100009.50;5047463;28;20104;-83
2021/08/08 09:16:43;;;;;;;4.47;1.73;;;;;;;21.32;48.78;100022.66;5045888;28;20046;-83
2021/08/08 09:19:20;;;;;;;;;;;;;;;21.31;48.57;100023.66;5035847;28;20048;-82
2021/08/08 09:21:51;;;;;;;5.05;1.20;;;;;;;21.33;48.11;100024.38;5045967;28;19936;-83
2021/08/08 09:24:35;;;;;;;4.43;1.50;;;;;;;21.23;49.11;100026.28;5047048;28;20099;-83
2021/08/08 09:27:18;;;;;;;3.85;1.25;;;;;;;21.14;49.87;100013.66;5042238;28;20485;-83
2021/08/08 09:29:48;;;;;;;4.85;1.50;;;;;;;21.17;49.73;100013.34;5039009;28;20053;-83
2021/08/08 09:32:15;;;;;;;7.07;1.88;;;;;;;21.06;49.62;100018.94;5036391;28;20366;-82
2021/08/08 09:34:45;;;;;;;4.13;1.50;;;;;;;21.00;48.81;100006.91;5047551;28;20123;-82
2021/08/08 09:37:22;;;;;;;4.55;1.30;;;;;;;21.01;49.59;100018.53;5030168;28;20072;-83
2021/08/08 09:39:54;;;;;;;4.38;1.17;;;;;;;21.14;48.92;100020.88;5037145;28;20041;-83
2021/08/08 09:42:25;;;;;;;2.33;1.23;;;;;;;21.33;48.37;100026.22;5030183;28;20045;-83
2021/08/08 09:44:54;;;;;;;4.07;1.20;;;;;;;21.43;47.62;100031.53;5038791;28;20053;-83
2021/08/08 09:47:22;;;;;;;2.72;1.17;;;;;;;21.42;48.01;100029.84;5031786;28;20080;-82
2021/08/08 09:50:00;;;;;;;3.67;1.10;;;;;;;21.35;47.03;100022.38;5034858;28;20049;-83
2021/08/08 09:52:27;;;;;;;3.42;1.10;;;;;;;21.32;46.77;100027.22;5036754;28;20048;-82
2021/08/08 09:54:55;;;;;;;4.07;1.00;;;;;;;21.32;46.88;100016.44;5035351;28;20052;-83
2021/08/08 09:57:22;;;;;;;4.75;1.33;;;;;;;21.37;47.73;100030.31;5037350;28;20091;-83
2021/08/08 09:59:52;;;;;;;2.38;1.00;;;;;;;21.45;47.12;100027.69;5037978;28;20037;-82
2021/08/08 10:02:22;;;;;;;3.60;1.00;;;;;;;21.49;46.97;100022.88;5031006;28;20520;-82
2021/08/08 10:04:51;;;;;;;4.60;1.33;;;;;;;21.49;46.73;100017.47;5026450;28;20052;-81
2021/08/08 10:07:21;;;;;;;2.85;0.88;;;;;;;21.54;46.73;100021.41;5029441;28;20041;-82
2021/08/08 10:09:49;;;;;;;4.82;1.23;;;;;;;21.49;46.38;100029.09;5046477;28;20836;-83
2021/08/08 10:12:34;;;;;;;3.42;1.08;;;;;;;21.45;46.77;100037.63;5038250;28;20048;-83
2021/08/08 10:15:01;;;;;;;2.22;1.15;;;;;;;21.44;46.24;100035.94;5047467;28;20057;-82
2021/08/08 10:17:29;;;;;;;4.70;1.63;;;;;;;21.43;46.45;100034.22;5038303;28;20049;-82
2021/08/08 10:20:00;;;;;;;5.25;1.40;;;;;;;21.46;46.64;100033.94;5038862;28;20057;-82
2021/08/08 10:22:30;;;;;;;3.20;1.23;;;;;;;21.45;46.43;100030.41;5038953;28;20049;-82
2021/08/08 10:24:59;;;;;;;4.38;1.23;;;;;;;21.42;46.92;100032.53;5034151;28;20533;-82
2021/08/08 10:27:33;;;;;;;3.45;1.30;;;;;;;21.49;46.25;100023.72;5041962;28;20128;-83
2021/08/08 10:30:02;;;;;;;3.72;1.10;;;;;;;21.52;46.58;100038.72;5033991;28;20546;-82
2021/08/08 10:32:30;;;;;;;3.63;1.35;;;;;;;21.43;46.99;100042.31;5029446;28;20064;-83
2021/08/08 10:35:10;;;;;;;4.53;1.30;;;;;;;21.42;46.44;100043.31;5033908;28;20045;-83
2021/08/08 10:37:40;;;;;;;3.88;1.52;;;;;;;21.38;47.05;100052.72;5025792;28;20042;-82
2021/08/08 10:40:08;;;;;;;5.82;1.50;;;;;;;21.35;47.25;100043.91;5038490;28;20053;-83
2021/08/08 10:42:46;;;;;;;3.80;1.70;;;;;;;21.45;47.47;100045.72;5038466;28;20033;-82
2021/08/08 10:45:30;;;;;;;3.88;1.50;;;;;;;21.62;47.77;100036.81;5033268;28;20488;-83
2021/08/08 10:48:11;;;;;;;6.15;1.95;;;;;;;21.77;47.67;100043.38;5034885;28;20084;-83
2021/08/08 10:50:41;;;;;;;5.28;1.70;;;;;;;21.83;47.37;100037.41;5015227;28;20059;-82
2021/08/08 10:53:21;;;;;;;6.05;1.73;;;;;;;21.74;45.54;100027.50;5034490;28;20464;-82
2021/08/08 10:55:50;;;;;;;3.50;1.60;;;;;;;21.80;45.82;100031.47;5033100;28;20113;-83
2021/08/08 10:58:17;;;;;;;4.07;1.70;;;;;;;21.91;45.58;100018.59;5036737;28;20050;-83
2021/08/08 11:00:46;;;;;;;2.75;1.55;;;;;;;22.13;44.66;100028.13;5046790;28;20056;-82
2021/08/08 11:03:15;;;;;;;3.78;1.60;;;;;;;22.26;44.67;100023.16;5045312;28;20029;-83
2021/08/08 11:05:45;;;;;;;4.05;1.40;;;;;;;22.43;45.02;100028.69;5055827;28;20075;-83
2021/08/08 11:08:12;;;;;;;3.50;1.33;;;;;;;22.53;45.09;100037.53;5040635;28;20109;-82
2021/08/08 11:10:42;;;;;;;2.20;1.15;;;;;;;22.50;44.11;100036.03;5056774;28;20031;-82
2021/08/08 11:13:18;;;;;;;3.58;1.58;;;;;;;22.51;44.29;100034.16;5056574;28;20049;-82
2021/08/08 11:15:45;;;;;;;2.33;1.02;;;;;;;22.49;43.63;100039.72;5064340;28;20101;-81
2021/08/08 11:18:13;;;;;;;3.25;1.20;;;;;;;22.42;44.06;100030.53;5058335;28;20053;-82
2021/08/08 11:20:40;;;;;;;3.47;1.40;;;;;;;22.40;44.45;100032.53;5062705;28;20113;-82
2021/08/08 11:23:07;;;;;;;4.57;1.60;;;;;;;22.34;44.53;100030.50;5053597;28;20057;-82
2021/08/08 11:25:39;;;;;;;2.70;1.40;;;;;;;22.30;44.00;100038.03;5055140;28;20037;-83
2021/08/08 11:28:06;;;;;;;4.30;1.27;;;;;;;22.26;45.44;100030.41;5057043;28;20105;-82
2021/08/08 11:30:42;;;;;;;2.90;1.40;;;;;;;22.41;44.57;100034.25;5069055;28;20090;-83
2021/08/08 11:33:11;;;;;;;3.40;1.10;;;;;;;22.52;43.56;100030.44;5063000;28;20036;-82
2021/08/08 11:35:39;;;;;;;3.63;1.10;;;;;;;22.42;43.33;100033.25;5040098;28;20109;-82
2021/08/08 11:38:19;;;;;;;3.03;1.40;;;;;;;22.42;44.58;100049.44;5061924;28;20041;-82